Time;durP1;ratioP1;P1;durP2;ratioP2;P2;SDS_P1;SDS_P2;PMS_P1;PMS_P2;Temp;Humidity;BMP_temperature;BMP_pressure;BME280_temperature;BME280_humidity;BME280_pressure;Samples;Min_cycle;Max_cycle;Signal;HPM_P1;HPM_P2
2024/01/26 00:02:19;;;;;;;20.30;19.60;;;10.80;99.90;;;;;;5071703;28;20199;-62
2024/01/26 00:04:47;;;;;;;20.47;19.77;;;10.70;99.90;;;;;;5070207;28;20199;-63
2024/01/26 00:07:14;;;;;;;19.70;19.03;;;10.70;99.90;;;;;;5072663;28;20227;-63
2024/01/26 00:09:41;;;;;;;19.87;19.17;;;10.70;99.90;;;;;;5073905;28;20211;-62
2024/01/26 00:12:08;;;;;;;19.73;19.03;;;10.70;99.90;;;;;;5071929;28;20239;-62
2024/01/26 00:14:34;;;;;;;18.43;17.83;;;10.60;99.90;;;;;;5073611;28;20211;-62
2024/01/26 00:17:01;;;;;;;19.07;18.43;;;10.70;99.90;;;;;;5072397;28;20736;-62
2024/01/26 00:19:28;;;;;;;19.80;19.10;;;10.60;99.90;;;;;;5071251;28;20290;-61
2024/01/26 00:21:57;;;;;;;19.63;18.93;;;10.60;99.90;;;;;;5070761;28;20215;-63
2024/01/26 00:24:24;;;;;;;18.07;17.47;;;10.60;99.90;;;;;;5070882;28;20235;-61
2024/01/26 00:26:51;;;;;;;19.33;18.63;;;10.60;99.90;;;;;;5070866;28;20231;-62
2024/01/26 00:29:17;;;;;;;18.37;17.77;;;10.60;99.90;;;;;;5068986;28;20222;-62
2024/01/26 00:31:45;;;;;;;18.30;17.70;;;10.60;99.90;;;;;;5069777;28;20207;-61
2024/01/26 00:34:11;;;;;;;18.87;18.27;;;10.50;99.90;;;;;;5069856;28;20218;-61
2024/01/26 00:36:38;;;;;;;18.83;18.20;;;10.50;99.90;;;;;;5070403;28;20594;-62
2024/01/26 00:39:08;;;;;;;17.50;16.90;;;10.50;99.90;;;;;;5070516;28;20222;-62
2024/01/26 00:41:34;;;;;;;16.97;16.37;;;10.60;99.90;;;;;;5070127;28;20229;-63
2024/01/26 00:44:01;;;;;;;17.87;17.27;;;10.50;99.90;;;;;;5070929;28;20210;-63
2024/01/26 00:46:28;;;;;;;17.37;16.77;;;10.50;99.90;;;;;;5078753;28;20249;-66
2024/01/26 00:48:55;;;;;;;18.57;17.97;;;10.50;99.90;;;;;;5085519;28;20207;-62
2024/01/26 00:51:22;;;;;;;18.00;17.40;;;10.50;99.90;;;;;;5085674;28;20290;-63
2024/01/26 00:53:49;;;;;;;17.93;17.33;;;10.60;99.90;;;;;;5082355;28;20267;-62
2024/01/26 00:56:18;;;;;;;17.93;17.33;;;10.60;99.90;;;;;;5073871;28;20219;-62
2024/01/26 00:58:44;;;;;;;17.50;16.90;;;10.50;99.90;;;;;;5071759;28;20199;-63
2024/01/26 01:01:11;;;;;;;17.95;17.35;;;10.50;99.90;;;;;;5070428;28;20222;-62
2024/01/26 01:03:38;;;;;;;18.10;17.50;;;10.50;99.90;;;;;;5068327;28;20214;-62
2024/01/26 01:06:04;;;;;;;18.50;17.80;;;10.50;99.90;;;;;;5069496;28;20899;-62
2024/01/26 01:08:31;;;;;;;18.47;17.87;;;10.50;99.90;;;;;;5069637;28;20218;-63
2024/01/26 01:10:58;;;;;;;18.93;18.20;;;10.50;99.90;;;;;;5068704;28;20207;-62
2024/01/26 01:13:26;;;;;;;17.03;16.43;;;10.50;99.90;;;;;;5069574;28;20199;-62
2024/01/26 01:15:53;;;;;;;18.73;18.03;;;10.50;99.90;;;;;;5069982;28;20238;-62
2024/01/26 01:18:20;;;;;;;17.53;16.93;;;10.50;99.90;;;;;;5069360;28;20206;-63
2024/01/26 01:20:47;;;;;;;17.90;17.30;;;10.50;99.90;;;;;;5065360;28;20294;-63
2024/01/26 01:23:15;;;;;;;18.40;17.73;;;10.40;99.90;;;;;;5069435;28;20457;-62
2024/01/26 01:25:42;;;;;;;17.60;17.00;;;10.40;99.90;;;;;;5069439;28;20235;-63
2024/01/26 01:28:09;;;;;;;18.07;17.47;;;10.40;99.90;;;;;;5069707;28;20211;-62
2024/01/26 01:30:37;;;;;;;17.83;17.23;;;10.40;99.90;;;;;;5069109;28;20292;-62
2024/01/26 01:33:04;;;;;;;18.20;17.50;;;10.40;99.90;;;;;;5071144;28;20662;-61
2024/01/26 01:35:31;;;;;;;17.43;16.83;;;10.40;99.90;;;;;;5075792;28;20234;-64
2024/01/26 01:37:58;;;;;;;17.77;17.17;;;10.40;99.90;;;;;;5077844;28;20294;-62
2024/01/26 01:40:24;;;;;;;17.50;16.90;;;10.40;99.90;;;;;;5076349;28;20297;-63
2024/01/26 01:42:51;;;;;;;17.50;16.90;;;10.40;99.90;;;;;;5075133;28;20203;-62
2024/01/26 01:45:18;;;;;;;18.70;18.10;;;10.40;99.90;;;;;;5075709;28;20214;-62
2024/01/26 01:47:46;;;;;;;18.80;18.10;;;10.40;99.90;;;;;;5076262;28;20230;-63
2024/01/26 01:50:13;;;;;;;18.63;18.02;;;10.30;99.90;;;;;;5072848;28;20203;-63
2024/01/26 01:52:42;;;;;;;18.47;17.87;;;10.40;99.90;;;;;;5070029;28;20533;-63
2024/01/26 01:55:11;;;;;;;18.57;17.97;;;10.30;99.90;;;;;;5070334;28;20661;-64
2024/01/26 01:57:40;;;;;;;19.27;18.57;;;10.40;99.90;;;;;;5070145;28;20231;-61
2024/01/26 02:00:15;;;;;;;19.93;19.23;;;10.30;99.90;;;;;;5069479;28;20261;-61
2024/01/26 02:02:43;;;;;;;21.90;21.13;;;10.30;99.90;;;;;;5069536;28;20230;-62
2024/01/26 02:05:12;;;;;;;19.77;19.07;;;10.30;99.90;;;;;;5068767;28;20207;-62
2024/01/26 02:07:39;;;;;;;18.47;17.83;;;10.30;99.90;;;;;;5068858;28;20223;-63
2024/01/26 02:10:08;;;;;;;18.20;17.60;;;10.30;99.90;;;;;;5067925;28;20568;-62
2024/01/26 02:12:34;;;;;;;18.05;17.42;;;10.30;99.90;;;;;;5068861;28;20203;-61
2024/01/26 02:15:04;;;;;;;21.35;20.58;;;10.30;99.90;;;;;;5068977;28;20199;-61
2024/01/26 02:17:32;;;;;;;21.25;20.50;;;10.30;99.90;;;;;;5068921;28;20935;-63
2024/01/26 02:19:59;;;;;;;23.17;22.33;;;10.30;99.90;;;;;;5068981;28;20252;-61
2024/01/26 02:22:27;;;;;;;20.83;20.03;;;10.30;99.90;;;;;;5070292;28;20214;-62
2024/01/26 02:24:55;;;;;;;18.43;17.83;;;10.30;99.90;;;;;;5070092;28;20207;-61
2024/01/26 02:27:22;;;;;;;18.50;17.87;;;10.30;99.90;;;;;;5070031;28;20235;-63
2024/01/26 02:29:50;;;;;;;19.53;18.83;;;10.30;99.90;;;;;;5072999;28;20692;-62
2024/01/26 02:32:17;;;;;;;20.77;20.07;;;10.30;99.90;;;;;;5072515;28;20203;-64
2024/01/26 02:34:43;;;;;;;20.07;19.37;;;10.30;99.90;;;;;;5072609;28;20575;-63
2024/01/26 02:37:11;;;;;;;20.85;20.13;;;10.30;99.90;;;;;;5072337;28;20219;-62
2024/01/26 02:39:37;;;;;;;20.23;19.53;;;10.30;99.90;;;;;;5072652;28;20282;-62
2024/01/26 02:42:07;;;;;;;19.57;18.87;;;10.30;99.90;;;;;;5071187;28;20207;-63
2024/01/26 02:44:33;;;;;;;20.20;19.50;;;10.40;99.90;;;;;;5069647;28;20199;-62
2024/01/26 02:47:00;;;;;;;19.60;18.80;;;10.40;99.90;;;;;;5071946;28;20231;-62
2024/01/26 02:49:27;;;;;;;18.30;17.70;;;10.40;99.90;;;;;;5072229;28;20207;-62
2024/01/26 02:51:53;;;;;;;19.73;19.03;;;10.50;99.90;;;;;;5071740;28;20218;-62
2024/01/26 02:54:20;;;;;;;17.90;17.30;;;10.40;99.90;;;;;;5072010;28;20203;-63
2024/01/26 02:56:47;;;;;;;18.00;17.40;;;10.40;99.90;;;;;;5067743;28;20223;-64
2024/01/26 02:59:15;;;;;;;18.43;17.80;;;10.40;99.90;;;;;;5070968;28;20657;-62
2024/01/26 03:01:42;;;;;;;18.10;17.43;;;10.40;99.90;;;;;;5072117;28;20211;-61
2024/01/26 03:04:08;;;;;;;17.70;17.10;;;10.40;99.90;;;;;;5074430;28;20204;-62
2024/01/26 03:06:35;;;;;;;17.47;16.87;;;10.40;99.90;;;;;;5077470;28;20231;-62
2024/01/26 03:09:03;;;;;;;17.33;16.73;;;10.50;99.90;;;;;;5072316;28;20684;-62
2024/01/26 03:11:40;;;;;;;19.07;18.37;;;10.50;99.90;;;;;;5072383;28;20293;-64
2024/01/26 03:14:08;;;;;;;15.80;15.30;;;10.50;99.90;;;;;;5072893;28;20211;-62
2024/01/26 03:16:39;;;;;;;19.50;18.80;;;10.40;99.90;;;;;;5070898;28;20242;-62
2024/01/26 03:19:06;;;;;;;16.80;16.20;;;10.50;99.90;;;;;;5071197;28;20207;-63
2024/01/26 03:21:32;;;;;;;18.15;17.55;;;10.40;99.90;;;;;;5073322;28;20200;-63
2024/01/26 03:24:02;;;;;;;17.03;16.43;;;10.50;99.90;;;;;;5073126;28;20199;-63
2024/01/26 03:26:29;;;;;;;17.90;17.30;;;10.50;99.90;;;;;;5072250;28;20620;-64
2024/01/26 03:28:55;;;;;;;18.23;17.63;;;10.50;99.90;;;;;;5071512;28;20214;-61
2024/01/26 03:31:22;;;;;;;17.67;17.07;;;10.50;99.90;;;;;;5070528;28;20211;-61
2024/01/26 03:33:50;;;;;;;17.07;16.47;;;10.60;99.90;;;;;;5070710;28;20301;-63
2024/01/26 03:36:17;;;;;;;17.40;16.80;;;10.60;99.90;;;;;;5070772;28;20219;-62
2024/01/26 03:38:44;;;;;;;17.23;16.63;;;10.60;99.90;;;;;;5068794;28;20262;-62
2024/01/26 03:41:11;;;;;;;16.70;16.10;;;10.60;99.90;;;;;;5069223;28;20208;-63
2024/01/26 03:43:38;;;;;;;17.50;16.90;;;10.60;99.90;;;;;;5071009;28;20579;-62
2024/01/26 03:46:05;;;;;;;17.70;17.10;;;10.60;99.90;;;;;;5070817;28;20234;-63
2024/01/26 03:48:33;;;;;;;18.33;17.73;;;10.60;99.90;;;;;;5070875;28;20199;-63
2024/01/26 03:51:01;;;;;;;17.70;17.10;;;10.60;99.90;;;;;;5070366;28;20237;-63
2024/01/26 03:53:28;;;;;;;16.77;16.17;;;10.60;99.90;;;;;;5071060;28;20201;-62
2024/01/26 03:55:54;;;;;;;17.60;17.00;;;10.60;99.90;;;;;;5071039;28;20234;-62
2024/01/26 03:58:21;;;;;;;17.73;17.13;;;10.60;99.90;;;;;;5070893;28;20211;-64
2024/01/26 04:00:48;;;;;;;18.47;17.87;;;10.60;99.90;;;;;;5070039;28;20203;-62
2024/01/26 04:03:16;;;;;;;18.73;18.13;;;10.60;99.90;;;;;;5070527;28;20681;-62
2024/01/26 04:05:42;;;;;;;15.80;15.30;;;10.60;99.90;;;;;;5070854;28;20208;-62
2024/01/26 04:08:11;;;;;;;18.90;18.23;;;10.60;99.90;;;;;;5071642;28;20230;-63
2024/01/26 04:10:38;;;;;;;18.77;18.17;;;10.60;99.90;;;;;;5079786;28;20195;-62
2024/01/26 04:13:05;;;;;;;18.27;17.67;;;10.60;99.90;;;;;;5079846;28;20207;-62
2024/01/26 04:15:32;;;;;;;16.33;15.80;;;10.50;99.90;;;;;;5075255;28;20214;-62
2024/01/26 04:17:58;;;;;;;16.97;16.37;;;10.60;99.90;;;;;;5077356;28;20276;-61
2024/01/26 04:20:25;;;;;;;17.40;16.80;;;10.60;99.90;;;;;;5066462;28;20217;-62
2024/01/26 04:22:52;;;;;;;15.63;15.13;;;10.60;99.90;;;;;;5072616;28;20670;-62
2024/01/26 04:25:20;;;;;;;15.60;15.10;;;10.60;99.90;;;;;;5076487;28;20210;-62
2024/01/26 04:27:46;;;;;;;16.07;15.47;;;10.60;99.90;;;;;;5079221;28;20230;-62
2024/01/26 04:30:14;;;;;;;16.17;15.60;;;10.70;99.90;;;;;;5080460;28;20211;-62
2024/01/26 04:32:41;;;;;;;15.47;14.97;;;10.70;99.90;;;;;;5081785;28;20210;-62
2024/01/26 04:35:08;;;;;;;15.87;15.33;;;10.70;99.90;;;;;;5079926;28;20638;-62
2024/01/26 04:37:35;;;;;;;15.03;14.53;;;10.70;99.90;;;;;;5077279;28;20218;-63
2024/01/26 04:40:02;;;;;;;15.90;15.30;;;10.80;99.90;;;;;;5068796;28;20211;-62
2024/01/26 04:42:30;;;;;;;16.03;15.50;;;10.80;99.90;;;;;;5069328;28;20203;-62
2024/01/26 04:44:57;;;;;;;15.37;14.87;;;10.80;99.90;;;;;;5069979;28;20215;-64
2024/01/26 04:47:23;;;;;;;15.83;15.23;;;10.80;99.90;;;;;;5069624;28;20227;-62
2024/01/26 04:49:50;;;;;;;15.27;14.77;;;10.80;99.90;;;;;;5072014;28;20214;-63
2024/01/26 04:52:17;;;;;;;17.47;16.87;;;10.80;99.90;;;;;;5074227;28;20382;-62
2024/01/26 04:54:43;;;;;;;16.57;15.97;;;10.90;99.90;;;;;;5070034;28;20203;-62
2024/01/26 04:57:10;;;;;;;16.97;16.37;;;10.80;99.90;;;;;;5069387;28;20226;-62
2024/01/26 04:59:38;;;;;;;17.37;16.77;;;10.90;99.90;;;;;;5069564;28;20211;-62
2024/01/26 05:02:05;;;;;;;15.60;15.10;;;10.80;99.90;;;;;;5068869;28;20207;-62
2024/01/26 05:04:32;;;;;;;17.03;16.43;;;10.80;99.90;;;;;;5067141;28;20211;-63
2024/01/26 05:06:58;;;;;;;14.77;14.27;;;10.80;99.90;;;;;;5069758;28;20227;-61
2024/01/26 05:09:26;;;;;;;16.07;15.57;;;10.80;99.90;;;;;;5068864;28;20552;-62
2024/01/26 05:11:53;;;;;;;16.33;15.77;;;10.80;99.90;;;;;;5068691;28;20218;-62
2024/01/26 05:14:20;;;;;;;14.40;13.90;;;10.90;99.90;;;;;;5069071;28;20207;-62
2024/01/26 05:16:48;;;;;;;15.80;15.23;;;10.80;99.90;;;;;;5069454;28;20221;-62
2024/01/26 05:19:15;;;;;;;15.63;15.07;;;10.80;99.90;;;;;;5069340;28;20207;-61
2024/01/26 05:21:42;;;;;;;14.90;14.40;;;10.80;99.90;;;;;;5069060;28;20232;-62
2024/01/26 05:24:09;;;;;;;15.43;14.93;;;10.80;99.90;;;;;;5069397;28;20206;-63
2024/01/26 05:26:38;;;;;;;17.13;16.53;;;10.80;99.90;;;;;;5068894;28;20306;-62
2024/01/26 05:29:06;;;;;;;14.33;13.83;;;10.90;99.90;;;;;;5069624;28;20311;-62
2024/01/26 05:31:33;;;;;;;16.63;16.05;;;10.90;99.90;;;;;;5068799;28;20577;-62
2024/01/26 05:34:01;;;;;;;14.37;13.87;;;10.90;99.90;;;;;;5069643;28;20231;-62
2024/01/26 05:36:28;;;;;;;17.83;17.23;;;11.00;99.90;;;;;;5069309;28;20230;-63
2024/01/26 05:38:55;;;;;;;17.17;16.57;;;11.00;99.90;;;;;;5070153;28;20203;-62
2024/01/26 05:41:22;;;;;;;16.93;16.33;;;10.90;99.90;;;;;;5069907;28;20206;-62
2024/01/26 05:43:50;;;;;;;17.30;16.70;;;10.90;99.90;;;;;;5072877;28;20214;-63
2024/01/26 05:46:17;;;;;;;17.47;16.87;;;10.90;99.90;;;;;;5072517;28;20318;-62
2024/01/26 05:48:45;;;;;;;17.07;16.47;;;10.90;99.90;;;;;;5071556;28;20223;-62
2024/01/26 05:51:13;;;;;;;17.57;16.97;;;10.90;99.90;;;;;;5068572;28;20203;-62
2024/01/26 05:53:40;;;;;;;16.70;16.10;;;10.90;99.90;;;;;;5069464;28;20206;-66
2024/01/26 05:56:07;;;;;;;16.47;15.90;;;10.90;99.90;;;;;;5069269;28;20231;-68
2024/01/26 05:58:33;;;;;;;15.20;14.70;;;11.00;99.90;;;;;;5070561;28;20196;-66
2024/01/26 06:01:00;;;;;;;17.43;16.83;;;11.00;99.90;;;;;;5068989;28;20204;-65
2024/01/26 06:03:27;;;;;;;16.00;15.50;;;11.00;99.90;;;;;;5070859;28;20211;-68
2024/01/26 06:05:54;;;;;;;16.03;15.50;;;11.00;99.90;;;;;;5073758;28;20658;-65
2024/01/26 06:08:22;;;;;;;15.37;14.87;;;11.10;99.90;;;;;;5073619;28;20226;-67
2024/01/26 06:10:49;;;;;;;16.37;15.83;;;11.10;99.90;;;;;;5073886;28;20210;-67
2024/01/26 06:13:16;;;;;;;17.03;16.43;;;11.10;99.90;;;;;;5072952;28;20633;-66
2024/01/26 06:15:43;;;;;;;16.40;15.80;;;11.10;99.90;;;;;;5073480;28;20208;-65
2024/01/26 06:18:09;;;;;;;17.33;16.73;;;11.10;99.90;;;;;;5073703;28;20200;-66
2024/01/26 06:20:36;;;;;;;18.07;17.47;;;11.10;99.90;;;;;;5073971;28;20207;-65
2024/01/26 06:23:03;;;;;;;17.40;16.80;;;11.00;99.90;;;;;;5074322;28;20203;-67
2024/01/26 06:25:32;;;;;;;17.47;16.87;;;11.10;99.90;;;;;;5079067;28;20218;-66
2024/01/26 06:27:59;;;;;;;16.57;15.97;;;11.10;99.90;;;;;;5081237;28;20245;-64
2024/01/26 06:30:26;;;;;;;17.95;17.35;;;11.10;99.90;;;;;;5077873;28;20210;-68
2024/01/26 06:32:53;;;;;;;17.47;16.87;;;11.10;99.90;;;;;;5078228;28;20200;-66
2024/01/26 06:35:20;;;;;;;18.30;17.70;;;11.10;99.90;;;;;;5078974;28;20209;-68
2024/01/26 06:37:47;;;;;;;17.38;16.77;;;11.10;99.90;;;;;;5076919;28;20219;-65
2024/01/26 06:40:14;;;;;;;18.50;17.83;;;11.10;99.90;;;;;;5069593;28;20211;-66
2024/01/26 06:42:43;;;;;;;17.07;16.47;;;11.10;99.90;;;;;;5069982;28;20207;-61
2024/01/26 06:45:10;;;;;;;17.80;17.20;;;11.10;99.90;;;;;;5072756;28;20208;-69
2024/01/26 06:47:37;;;;;;;20.40;19.70;;;11.00;99.90;;;;;;5073294;28;20219;-65
2024/01/26 06:50:05;;;;;;;20.30;19.60;;;11.00;99.90;;;;;;5072285;28;20239;-68
2024/01/26 06:52:32;;;;;;;18.30;17.63;;;10.90;99.90;;;;;;5073396;28;20582;-68
2024/01/26 06:54:59;;;;;;;17.60;17.00;;;10.80;99.90;;;;;;5072980;28;20681;-67
2024/01/26 06:57:26;;;;;;;19.33;18.63;;;10.80;99.90;;;;;;5072004;28;20223;-66
2024/01/26 06:59:54;;;;;;;18.07;17.47;;;10.80;99.90;;;;;;5069927;28;20205;-68
2024/01/26 07:02:21;;;;;;;18.97;18.30;;;10.70;99.90;;;;;;5072519;28;20209;-67
2024/01/26 07:04:48;;;;;;;19.00;18.38;;;10.70;99.90;;;;;;5068815;28;20870;-65
2024/01/26 07:07:15;;;;;;;19.37;18.67;;;10.70;99.90;;;;;;5070821;28;20223;-66
2024/01/26 07:09:41;;;;;;;20.23;19.53;;;10.70;99.90;;;;;;5072117;28;20960;-66
2024/01/26 07:12:08;;;;;;;19.97;19.27;;;10.70;99.90;;;;;;5071914;28;20203;-67
2024/01/26 07:14:35;;;;;;;17.33;16.73;;;10.70;99.90;;;;;;5072458;28;20199;-67
2024/01/26 07:17:04;;;;;;;18.03;17.43;;;10.60;99.90;;;;;;5082150;28;20262;-66
2024/01/26 07:19:30;;;;;;;17.00;16.40;;;10.60;99.90;;;;;;5080335;28;20231;-67
2024/01/26 07:21:57;;;;;;;17.60;17.00;;;10.60;99.90;;;;;;5080718;28;20212;-67
2024/01/26 07:24:24;;;;;;;18.53;17.90;;;10.60;99.90;;;;;;5081124;28;20204;-66
2024/01/26 07:26:50;;;;;;;16.63;16.05;;;10.60;99.90;;;;;;5076902;28;20238;-65
2024/01/26 07:29:17;;;;;;;18.27;17.67;;;10.50;99.90;;;;;;5075874;28;20235;-67
2024/01/26 07:31:45;;;;;;;17.67;17.07;;;10.50;99.90;;;;;;5072624;28;20203;-66
2024/01/26 07:34:13;;;;;;;17.50;16.90;;;10.50;99.90;;;;;;5071674;28;20210;-67
2024/01/26 07:36:40;;;;;;;17.50;16.90;;;10.50;99.90;;;;;;5070535;28;20269;-66
2024/01/26 07:39:07;;;;;;;16.97;16.37;;;10.50;99.90;;;;;;5070689;28;20206;-65
2024/01/26 07:41:34;;;;;;;16.63;16.03;;;10.60;99.90;;;;;;5070038;28;20404;-67
2024/01/26 07:44:00;;;;;;;17.93;17.33;;;10.60;99.90;;;;;;5071739;28;20257;-67
2024/01/26 07:46:27;;;;;;;17.80;17.20;;;10.60;99.90;;;;;;5071015;28;20227;-67
2024/01/26 07:48:54;;;;;;;16.75;16.15;;;10.70;99.90;;;;;;5071604;28;20227;-66
2024/01/26 07:51:22;;;;;;;16.30;15.75;;;10.70;99.90;;;;;;5071080;28;20317;-67
2024/01/26 07:53:49;;;;;;;16.73;16.13;;;10.70;99.90;;;;;;5067643;28;20214;-67
2024/01/26 07:56:15;;;;;;;17.00;16.40;;;10.70;99.90;;;;;;5071121;28;20227;-67
2024/01/26 07:58:42;;;;;;;17.95;17.33;;;10.70;99.90;;;;;;5071722;28;20198;-65
2024/01/26 08:01:09;;;;;;;17.27;16.67;;;10.80;99.90;;;;;;5070648;28;20673;-67
2024/01/26 08:03:36;;;;;;;18.37;17.67;;;10.80;99.90;;;;;;5071271;28;20671;-66
2024/01/26 08:06:02;;;;;;;17.03;16.43;;;10.80;99.90;;;;;;5071481;28;20235;-66
2024/01/26 08:08:31;;;;;;;18.85;18.20;;;10.90;99.90;;;;;;5071363;28;20227;-66
2024/01/26 08:10:57;;;;;;;18.87;18.20;;;10.90;99.90;;;;;;5072689;28;20207;-66
2024/01/26 08:13:24;;;;;;;17.60;17.00;;;10.90;99.90;;;;;;5072463;28;20245;-67
2024/01/26 08:15:51;;;;;;;17.53;16.93;;;11.00;99.90;;;;;;5073407;28;20234;-67
2024/01/26 08:18:18;;;;;;;17.13;16.53;;;11.00;99.90;;;;;;5070555;28;20199;-65
2024/01/26 08:20:45;;;;;;;24.40;23.57;;;11.00;99.90;;;;;;5071263;28;20199;-66
2024/01/26 08:23:12;;;;;;;16.17;15.63;;;11.10;99.90;;;;;;5068251;28;20295;-66
2024/01/26 08:25:40;;;;;;;15.10;14.60;;;11.20;99.90;;;;;;5064396;28;20218;-65
2024/01/26 08:28:07;;;;;;;15.80;15.30;;;11.30;99.90;;;;;;5071434;28;20360;-67
2024/01/26 08:30:34;;;;;;;16.20;15.60;;;11.30;99.90;;;;;;5070647;28;20828;-66
2024/01/26 08:33:01;;;;;;;18.37;17.77;;;11.30;99.90;;;;;;5071129;28;20214;-65
2024/01/26 08:35:28;;;;;;;16.80;16.20;;;11.30;99.90;;;;;;5070500;28;20199;-66
2024/01/26 08:37:54;;;;;;;17.23;16.63;;;11.40;99.90;;;;;;5071950;28;20206;-68
2024/01/26 08:40:21;;;;;;;16.87;16.27;;;11.40;99.90;;;;;;5070322;28;20659;-65
2024/01/26 08:42:49;;;;;;;17.57;16.97;;;11.40;99.90;;;;;;5066714;28;20449;-65
2024/01/26 08:45:16;;;;;;;17.07;16.47;;;11.40;99.90;;;;;;5071278;28;20616;-66
2024/01/26 08:47:43;;;;;;;15.33;14.83;;;11.40;99.90;;;;;;5071417;28;20234;-66
2024/01/26 08:50:11;;;;;;;15.40;14.90;;;11.40;99.90;;;;;;5070215;28;20206;-66
2024/01/26 08:52:37;;;;;;;15.33;14.83;;;11.50;99.90;;;;;;5070795;28;20286;-67
2024/01/26 08:55:05;;;;;;;16.00;15.43;;;11.60;99.90;;;;;;5069778;28;20203;-66
2024/01/26 08:57:32;;;;;;;14.40;13.90;;;11.50;99.90;;;;;;5069583;28;20349;-65
2024/01/26 09:00:03;;;;;;;15.10;14.60;;;11.60;99.90;;;;;;5069919;28;20215;-66
2024/01/26 09:02:30;;;;;;;13.80;13.30;;;11.60;99.90;;;;;;5069884;28;20207;-67
2024/01/26 09:04:57;;;;;;;14.50;14.00;;;11.70;99.90;;;;;;5070486;28;20700;-67
2024/01/26 09:07:24;;;;;;;14.03;13.53;;;11.70;99.90;;;;;;5070247;28;20269;-65
2024/01/26 09:09:51;;;;;;;14.67;14.17;;;11.70;99.90;;;;;;5070137;28;20605;-66
2024/01/26 09:12:18;;;;;;;13.60;13.13;;;11.80;99.90;;;;;;5069945;28;20207;-66
2024/01/26 09:14:45;;;;;;;13.20;12.73;;;11.90;99.90;;;;;;5070550;28;20225;-66
2024/01/26 09:17:13;;;;;;;12.90;12.50;;;11.90;99.90;;;;;;5070640;28;20227;-68
2024/01/26 09:19:40;;;;;;;11.93;11.53;;;12.00;99.90;;;;;;5070286;28;20207;-66
2024/01/26 09:22:08;;;;;;;11.90;11.50;;;12.00;99.90;;;;;;5070196;28;20215;-67
2024/01/26 09:24:35;;;;;;;12.90;12.50;;;12.10;99.90;;;;;;5069687;28;20536;-64
2024/01/26 09:27:02;;;;;;;13.37;12.87;;;12.10;99.90;;;;;;5069992;28;20227;-66
2024/01/26 09:29:28;;;;;;;13.73;13.23;;;12.10;99.90;;;;;;5070110;28;20227;-66
2024/01/26 09:31:56;;;;;;;12.30;11.90;;;12.20;99.90;;;;;;5070034;28;20214;-66
2024/01/26 09:34:24;;;;;;;12.10;11.70;;;12.10;99.90;;;;;;5070528;28;20207;-66
2024/01/26 09:36:51;;;;;;;12.33;11.83;;;12.10;99.90;;;;;;5067271;28;20223;-66
2024/01/26 09:39:18;;;;;;;13.27;12.77;;;12.10;99.90;;;;;;5073875;28;20567;-68
2024/01/26 09:41:45;;;;;;;12.77;12.37;;;12.10;99.90;;;;;;5073262;28;20203;-68
2024/01/26 09:44:11;;;;;;;13.17;12.67;;;12.20;99.90;;;;;;5074188;28;20608;-66
2024/01/26 09:46:38;;;;;;;13.40;12.90;;;12.20;99.90;;;;;;5073787;28;20732;-66
2024/01/26 09:49:08;;;;;;;13.87;13.37;;;12.20;99.90;;;;;;5073699;28;20211;-65
2024/01/26 09:51:36;;;;;;;13.33;12.83;;;12.10;99.90;;;;;;5072218;28;20607;-66
2024/01/26 09:54:04;;;;;;;14.13;13.63;;;12.10;99.90;;;;;;5074020;28;20203;-66
2024/01/26 09:56:32;;;;;;;14.87;14.37;;;12.10;99.90;;;;;;5073468;28;20239;-65
2024/01/26 09:58:59;;;;;;;14.60;14.07;;;12.10;99.90;;;;;;5073592;28;20301;-67
2024/01/26 10:01:27;;;;;;;14.17;13.67;;;12.20;99.90;;;;;;5073041;28;20203;-68
2024/01/26 10:03:56;;;;;;;13.97;13.47;;;12.10;99.90;;;;;;5073290;28;20574;-68
2024/01/26 10:06:22;;;;;;;14.63;14.13;;;12.10;99.90;;;;;;5072807;28;20223;-65
2024/01/26 10:08:50;;;;;;;14.63;14.13;;;12.10;99.90;;;;;;5068866;28;20662;-67
2024/01/26 10:11:17;;;;;;;14.10;13.60;;;12.10;99.90;;;;;;5072767;28;20214;-65
2024/01/26 10:13:44;;;;;;;15.00;14.50;;;12.00;99.90;;;;;;5075044;28;20218;-66
2024/01/26 10:16:13;;;;;;;15.30;14.80;;;12.10;99.90;;;;;;5072597;28;20250;-65
2024/01/26 10:18:42;;;;;;;15.37;14.87;;;12.10;99.90;;;;;;5073776;28;20792;-67
2024/01/26 10:21:09;;;;;;;14.83;14.33;;;12.10;99.90;;;;;;5072369;28;20211;-65
2024/01/26 10:23:36;;;;;;;15.30;14.80;;;12.00;99.90;;;;;;5074236;28;20211;-67
2024/01/26 10:26:04;;;;;;;15.40;14.90;;;12.00;99.90;;;;;;5074573;28;20235;-66
2024/01/26 10:28:31;;;;;;;14.50;14.00;;;12.00;99.90;;;;;;5073146;28;20627;-67
2024/01/26 10:30:58;;;;;;;15.97;15.40;;;12.00;99.90;;;;;;5071855;28;20207;-66
2024/01/26 10:33:25;;;;;;;15.07;14.57;;;12.00;99.90;;;;;;5075919;28;20203;-66
2024/01/26 10:35:57;;;;;;;15.73;15.13;;;12.10;99.90;;;;;;5076299;28;20223;-66
2024/01/26 10:38:24;;;;;;;15.97;15.47;;;12.10;99.90;;;;;;5071918;28;20205;-65
2024/01/26 10:40:56;;;;;;;15.93;15.40;;;12.00;99.90;;;;;;5072507;28;20195;-66
2024/01/26 10:43:25;;;;;;;16.10;15.60;;;12.10;99.90;;;;;;5078022;28;20572;-67
2024/01/26 10:45:53;;;;;;;14.50;14.00;;;12.10;99.90;;;;;;5078526;28;20234;-65
2024/01/26 10:48:22;;;;;;;15.53;15.03;;;12.20;99.90;;;;;;5068424;28;20230;-67
2024/01/26 10:50:49;;;;;;;14.80;14.30;;;12.10;99.90;;;;;;5061287;28;20206;-67
2024/01/26 10:53:18;;;;;;;14.90;14.40;;;12.20;99.90;;;;;;5071824;28;20243;-65
2024/01/26 10:55:46;;;;;;;15.85;15.30;;;12.20;99.90;;;;;;5070960;28;20199;-66
2024/01/26 10:58:13;;;;;;;15.50;14.90;;;12.20;99.90;;;;;;5071400;28;20210;-66
2024/01/26 11:00:41;;;;;;;17.77;17.10;;;12.20;99.90;;;;;;5071002;28;20607;-66
2024/01/26 11:03:09;;;;;;;16.40;15.80;;;12.20;99.90;;;;;;5069921;28;20257;-67
2024/01/26 11:05:36;;;;;;;15.93;15.43;;;12.20;99.90;;;;;;5070737;28;20215;-67
2024/01/26 11:08:12;;;;;;;14.90;14.40;;;12.20;99.90;;;;;;5069615;28;20282;-65
2024/01/26 11:10:39;;;;;;;15.67;15.13;;;12.20;99.90;;;;;;5067484;28;20656;-66
2024/01/26 11:13:07;;;;;;;15.80;15.27;;;12.20;99.90;;;;;;5071570;28;20207;-66
2024/01/26 11:15:36;;;;;;;16.80;16.20;;;12.20;99.90;;;;;;5070220;28;20717;-66
2024/01/26 11:18:05;;;;;;;16.77;16.17;;;12.20;99.90;;;;;;5071540;28;20207;-65
2024/01/26 11:20:33;;;;;;;16.67;16.08;;;12.20;99.90;;;;;;5069819;28;20226;-68
2024/01/26 11:23:00;;;;;;;17.37;16.77;;;12.20;99.90;;;;;;5071718;28;20430;-65
2024/01/26 11:25:33;;;;;;;18.50;17.87;;;12.20;99.90;;;;;;5070679;28;20211;-68
2024/01/26 11:28:00;;;;;;;15.60;15.10;;;12.10;99.90;;;;;;5074572;28;20203;-65
2024/01/26 11:30:28;;;;;;;20.97;20.23;;;12.10;99.90;;;;;;5071948;28;20253;-65
2024/01/26 11:32:54;;;;;;;18.47;17.83;;;12.10;99.90;;;;;;5074985;28;20290;-65
2024/01/26 11:35:23;;;;;;;20.70;19.97;;;12.10;99.90;;;;;;5073540;28;20211;-68
2024/01/26 11:37:52;;;;;;;21.93;21.17;;;12.10;99.90;;;;;;5070129;28;20223;-65
2024/01/26 11:40:20;;;;;;;16.83;16.23;;;12.10;99.90;;;;;;5070278;28;20275;-66
2024/01/26 11:42:47;;;;;;;18.67;18.03;;;12.00;99.90;;;;;;5074166;28;20775;-66
2024/01/26 11:45:35;;;;;;;18.40;17.77;;;12.00;99.90;;;;;;5075269;28;20245;-67
2024/01/26 11:48:07;;;;;;;22.30;21.53;;;12.10;99.90;;;;;;5073127;28;20203;-68
2024/01/26 11:50:36;;;;;;;20.77;20.03;;;12.00;99.90;;;;;;5075334;28;20231;-66
2024/01/26 11:53:03;;;;;;;25.17;24.27;;;12.00;99.90;;;;;;5075522;28;20214;-66
2024/01/26 11:55:30;;;;;;;20.83;20.13;;;12.00;99.90;;;;;;5077160;28;20225;-68
2024/01/26 11:57:58;;;;;;;20.03;19.33;;;12.00;99.90;;;;;;5080875;28;20209;-66
2024/01/26 12:00:24;;;;;;;21.70;20.97;;;12.00;99.90;;;;;;5080790;28;20290;-67
2024/01/26 12:02:52;;;;;;;18.77;18.13;;;12.00;99.90;;;;;;5081084;28;20222;-63
2024/01/26 12:05:19;;;;;;;24.07;23.23;;;12.00;99.90;;;;;;5080943;28;20306;-66
2024/01/26 12:07:47;;;;;;;21.03;20.30;;;12.10;99.90;;;;;;5077619;28;20230;-66
2024/01/26 12:10:14;;;;;;;18.53;17.87;;;12.10;99.90;;;;;;5071158;28;20265;-65
2024/01/26 12:12:42;;;;;;;15.80;15.30;;;12.10;99.90;;;;;;5073963;28;20676;-66
2024/01/26 12:15:10;;;;;;;13.97;13.47;;;12.10;99.90;;;;;;5073357;28;20615;-65
2024/01/26 12:17:37;;;;;;;15.67;15.17;;;12.10;99.90;;;;;;5072659;28;20231;-66
2024/01/26 12:20:08;;;;;;;16.27;15.73;;;12.20;99.90;;;;;;5074062;28;20203;-65
2024/01/26 12:22:36;;;;;;;15.40;14.90;;;12.30;99.90;;;;;;5071707;28;20204;-65
2024/01/26 12:25:06;;;;;;;16.30;15.70;;;12.30;99.90;;;;;;5071917;28;20607;-68
2024/01/26 12:27:34;;;;;;;15.07;14.57;;;12.40;99.90;;;;;;5069451;28;20237;-66
2024/01/26 12:30:01;;;;;;;17.27;16.67;;;12.40;99.90;;;;;;5069852;28;20223;-66